sensor_id;sensor_type;location;lat;lon;timestamp;pressure;altitude;pressure_sealevel;temperature;humidity
57847;BME280;43675;50.030;21.952;2023-05-20T00:01:01;99634.02;;;11.79;86.15
57847;BME280;43675;50.030;21.952;2023-05-20T00:03:27;99627.08;;;11.81;86.21
57847;BME280;43675;50.030;21.952;2023-05-20T00:05:54;99624.89;;;11.84;86.17
57847;BME280;43675;50.030;21.952;2023-05-20T00:08:20;99621.45;;;11.88;86.17
57847;BME280;43675;50.030;21.952;2023-05-20T00:10:47;99622.15;;;11.89;85.90
57847;BME280;43675;50.030;21.952;2023-05-20T00:13:13;99619.89;;;11.91;85.99
57847;BME280;43675;50.030;21.952;2023-05-20T00:15:40;99618.04;;;11.93;86.02
57847;BME280;43675;50.030;21.952;2023-05-20T00:18:07;99618.82;;;11.94;86.04
57847;BME280;43675;50.030;21.952;2023-05-20T00:20:33;99619.55;;;11.96;85.94
57847;BME280;43675;50.030;21.952;2023-05-20T00:23:00;99619.21;;;11.97;85.93
57847;BME280;43675;50.030;21.952;2023-05-20T00:25:26;99621.98;;;11.97;85.91
57847;BME280;43675;50.030;21.952;2023-05-20T00:27:53;99620.27;;;11.98;85.86
57847;BME280;43675;50.030;21.952;2023-05-20T00:30:19;99620.63;;;11.99;85.77
57847;BME280;43675;50.030;21.952;2023-05-20T00:32:46;99620.59;;;12.00;85.82
57847;BME280;43675;50.030;21.952;2023-05-20T00:35:12;99620.31;;;12.02;85.81
57847;BME280;43675;50.030;21.952;2023-05-20T00:37:39;99620.35;;;12.04;85.86
57847;BME280;43675;50.030;21.952;2023-05-20T00:40:06;99616.13;;;12.05;85.79
57847;BME280;43675;50.030;21.952;2023-05-20T00:42:33;99614.77;;;12.04;85.71
57847;BME280;43675;50.030;21.952;2023-05-20T00:44:59;99613.61;;;12.05;85.63
57847;BME280;43675;50.030;21.952;2023-05-20T00:47:29;99618.54;;;12.05;85.69
57847;BME280;43675;50.030;21.952;2023-05-20T00:49:57;99619.33;;;12.06;85.72
57847;BME280;43675;50.030;21.952;2023-05-20T00:52:24;99618.84;;;12.08;85.63
57847;BME280;43675;50.030;21.952;2023-05-20T00:54:52;99620.13;;;12.07;85.50
57847;BME280;43675;50.030;21.952;2023-05-20T00:57:19;99616.18;;;12.06;85.51
57847;BME280;43675;50.030;21.952;2023-05-20T00:59:46;99616.09;;;12.03;85.59
57847;BME280;43675;50.030;21.952;2023-05-20T01:02:13;99616.99;;;12.01;85.64
57847;BME280;43675;50.030;21.952;2023-05-20T01:04:40;99614.04;;;11.99;85.80
57847;BME280;43675;50.030;21.952;2023-05-20T01:07:06;99612.66;;;11.97;85.79
57847;BME280;43675;50.030;21.952;2023-05-20T01:09:33;99606.04;;;11.97;85.81
57847;BME280;43675;50.030;21.952;2023-05-20T01:14:47;99604.34;;;11.95;85.95
57847;BME280;43675;50.030;21.952;2023-05-20T01:17:15;99605.85;;;11.96;85.89
57847;BME280;43675;50.030;21.952;2023-05-20T01:19:44;99599.46;;;11.97;85.87
57847;BME280;43675;50.030;21.952;2023-05-20T01:22:13;99595.91;;;11.96;85.91
57847;BME280;43675;50.030;21.952;2023-05-20T01:24:45;99596.61;;;11.97;86.00
57847;BME280;43675;50.030;21.952;2023-05-20T01:27:12;99603.32;;;11.96;86.02
57847;BME280;43675;50.030;21.952;2023-05-20T01:29:40;99600.30;;;11.97;86.09
57847;BME280;43675;50.030;21.952;2023-05-20T01:32:14;99597.08;;;12.00;86.06
57847;BME280;43675;50.030;21.952;2023-05-20T01:34:44;99600.73;;;12.02;86.10
57847;BME280;43675;50.030;21.952;2023-05-20T01:37:12;99598.91;;;12.05;86.08
57847;BME280;43675;50.030;21.952;2023-05-20T01:39:40;99599.97;;;12.06;86.02
57847;BME280;43675;50.030;21.952;2023-05-20T01:42:09;99595.78;;;12.08;85.92
57847;BME280;43675;50.030;21.952;2023-05-20T01:44:36;99594.05;;;12.09;85.91
57847;BME280;43675;50.030;21.952;2023-05-20T01:47:03;99591.58;;;12.10;86.06
57847;BME280;43675;50.030;21.952;2023-05-20T01:49:29;99591.20;;;12.11;86.03
57847;BME280;43675;50.030;21.952;2023-05-20T01:51:56;99587.81;;;12.11;85.96
57847;BME280;43675;50.030;21.952;2023-05-20T01:54:24;99593.30;;;12.09;85.96
57847;BME280;43675;50.030;21.952;2023-05-20T01:56:50;99591.11;;;12.08;85.91
57847;BME280;43675;50.030;21.952;2023-05-20T01:59:17;99592.42;;;12.08;86.03
57847;BME280;43675;50.030;21.952;2023-05-20T02:01:43;99593.02;;;12.07;85.99
57847;BME280;43675;50.030;21.952;2023-05-20T02:04:10;99595.62;;;12.08;85.97
57847;BME280;43675;50.030;21.952;2023-05-20T02:06:37;99590.95;;;12.08;86.03
57847;BME280;43675;50.030;21.952;2023-05-20T02:09:04;99593.50;;;12.09;86.09
57847;BME280;43675;50.030;21.952;2023-05-20T02:11:30;99596.29;;;12.10;86.03
57847;BME280;43675;50.030;21.952;2023-05-20T02:13:57;99592.94;;;12.10;85.99
57847;BME280;43675;50.030;21.952;2023-05-20T02:16:23;99592.98;;;12.09;86.01
57847;BME280;43675;50.030;21.952;2023-05-20T02:18:50;99594.83;;;12.07;86.06
57847;BME280;43675;50.030;21.952;2023-05-20T02:21:16;99597.67;;;12.06;86.07
57847;BME280;43675;50.030;21.952;2023-05-20T02:23:43;99598.77;;;12.06;86.13
57847;BME280;43675;50.030;21.952;2023-05-20T02:26:10;99603.40;;;12.07;86.17
57847;BME280;43675;50.030;21.952;2023-05-20T02:28:36;99606.05;;;12.08;86.10
57847;BME280;43675;50.030;21.952;2023-05-20T02:31:03;99602.70;;;12.09;86.20
57847;BME280;43675;50.030;21.952;2023-05-20T02:33:29;99597.13;;;12.12;86.14
57847;BME280;43675;50.030;21.952;2023-05-20T02:35:56;99591.95;;;12.13;86.21
57847;BME280;43675;50.030;21.952;2023-05-20T02:38:22;99592.13;;;12.14;86.05
57847;BME280;43675;50.030;21.952;2023-05-20T02:40:49;99592.59;;;12.14;86.06
57847;BME280;43675;50.030;21.952;2023-05-20T02:43:16;99593.86;;;12.14;86.10
57847;BME280;43675;50.030;21.952;2023-05-20T02:45:42;99596.11;;;12.15;86.12
57847;BME280;43675;50.030;21.952;2023-05-20T02:48:09;99595.35;;;12.17;86.11
57847;BME280;43675;50.030;21.952;2023-05-20T02:50:37;99592.38;;;12.17;86.06
57847;BME280;43675;50.030;21.952;2023-05-20T02:53:04;99593.74;;;12.19;86.03
57847;BME280;43675;50.030;21.952;2023-05-20T02:55:33;99590.70;;;12.23;86.03
57847;BME280;43675;50.030;21.952;2023-05-20T02:58:00;99586.14;;;12.24;86.04
57847;BME280;43675;50.030;21.952;2023-05-20T03:00:27;99587.73;;;12.23;85.94
57847;BME280;43675;50.030;21.952;2023-05-20T03:02:53;99587.55;;;12.20;85.88
57847;BME280;43675;50.030;21.952;2023-05-20T03:05:20;99587.85;;;12.16;85.88
57847;BME280;43675;50.030;21.952;2023-05-20T03:07:47;99593.40;;;12.13;85.87
57847;BME280;43675;50.030;21.952;2023-05-20T03:10:13;99595.45;;;12.09;85.80
57847;BME280;43675;50.030;21.952;2023-05-20T03:12:40;99596.94;;;12.06;85.95
57847;BME280;43675;50.030;21.952;2023-05-20T03:15:07;99598.80;;;12.06;86.08
57847;BME280;43675;50.030;21.952;2023-05-20T03:17:34;99599.89;;;12.07;86.10
57847;BME280;43675;50.030;21.952;2023-05-20T03:20:00;99601.01;;;12.08;86.11
57847;BME280;43675;50.030;21.952;2023-05-20T03:22:27;99603.58;;;12.08;86.11
57847;BME280;43675;50.030;21.952;2023-05-20T03:24:53;99603.27;;;12.06;86.04
57847;BME280;43675;50.030;21.952;2023-05-20T03:27:20;99606.88;;;12.04;85.98
57847;BME280;43675;50.030;21.952;2023-05-20T03:29:46;99607.40;;;12.04;86.12
57847;BME280;43675;50.030;21.952;2023-05-20T03:32:13;99611.69;;;12.07;86.25
57847;BME280;43675;50.030;21.952;2023-05-20T03:34:39;99611.98;;;12.10;86.25
57847;BME280;43675;50.030;21.952;2023-05-20T03:37:06;99617.55;;;12.14;86.28
57847;BME280;43675;50.030;21.952;2023-05-20T03:39:33;99615.57;;;12.18;86.34
57847;BME280;43675;50.030;21.952;2023-05-20T03:41:59;99615.91;;;12.24;86.47
57847;BME280;43675;50.030;21.952;2023-05-20T03:44:26;99615.19;;;12.30;86.46
57847;BME280;43675;50.030;21.952;2023-05-20T03:46:53;99614.14;;;12.39;86.35
57847;BME280;43675;50.030;21.952;2023-05-20T03:49:19;99615.98;;;12.46;86.45
57847;BME280;43675;50.030;21.952;2023-05-20T03:51:46;99616.54;;;12.54;86.39
57847;BME280;43675;50.030;21.952;2023-05-20T03:54:12;99618.54;;;12.62;86.30
57847;BME280;43675;50.030;21.952;2023-05-20T03:56:39;99617.96;;;12.71;86.19
57847;BME280;43675;50.030;21.952;2023-05-20T03:59:05;99618.27;;;12.77;86.06
57847;BME280;43675;50.030;21.952;2023-05-20T04:01:32;99615.20;;;12.83;85.94
57847;BME280;43675;50.030;21.952;2023-05-20T04:03:58;99613.30;;;12.90;85.88
57847;BME280;43675;50.030;21.952;2023-05-20T04:06:25;99612.23;;;12.98;85.85
57847;BME280;43675;50.030;21.952;2023-05-20T04:08:51;99613.59;;;13.06;85.66
57847;BME280;43675;50.030;21.952;2023-05-20T04:11:18;99612.09;;;13.15;85.56
57847;BME280;43675;50.030;21.952;2023-05-20T04:13:44;99614.41;;;13.23;85.41
57847;BME280;43675;50.030;21.952;2023-05-20T04:16:11;99612.77;;;13.32;85.30
57847;BME280;43675;50.030;21.952;2023-05-20T04:18:38;99610.70;;;13.41;85.14
57847;BME280;43675;50.030;21.952;2023-05-20T04:21:04;99615.48;;;13.51;84.93
57847;BME280;43675;50.030;21.952;2023-05-20T04:23:31;99614.96;;;13.61;84.84
57847;BME280;43675;50.030;21.952;2023-05-20T04:25:57;99610.88;;;13.70;84.57
57847;BME280;43675;50.030;21.952;2023-05-20T04:28:24;99610.85;;;13.78;84.42
57847;BME280;43675;50.030;21.952;2023-05-20T04:31:00;99610.99;;;13.86;84.17
57847;BME280;43675;50.030;21.952;2023-05-20T04:33:27;99614.19;;;13.95;83.99
57847;BME280;43675;50.030;21.952;2023-05-20T04:35:53;99614.21;;;14.04;83.65
57847;BME280;43675;50.030;21.952;2023-05-20T04:38:20;99613.80;;;14.10;83.41
57847;BME280;43675;50.030;21.952;2023-05-20T04:40:46;99613.71;;;14.14;83.13
57847;BME280;43675;50.030;21.952;2023-05-20T04:43:13;99612.66;;;14.18;83.01
57847;BME280;43675;50.030;21.952;2023-05-20T04:45:39;99610.92;;;14.24;82.94
57847;BME280;43675;50.030;21.952;2023-05-20T04:48:06;99611.72;;;14.28;82.70
57847;BME280;43675;50.030;21.952;2023-05-20T04:50:32;99605.32;;;14.34;82.58
57847;BME280;43675;50.030;21.952;2023-05-20T04:52:59;99600.48;;;14.40;82.42
57847;BME280;43675;50.030;21.952;2023-05-20T04:55:25;99597.29;;;14.46;82.06
57847;BME280;43675;50.030;21.952;2023-05-20T04:57:52;99598.80;;;14.51;81.80
57847;BME280;43675;50.030;21.952;2023-05-20T05:00:18;99595.31;;;14.55;81.57
57847;BME280;43675;50.030;21.952;2023-05-20T05:02:45;99598.50;;;14.58;81.39
57847;BME280;43675;50.030;21.952;2023-05-20T05:05:11;99599.77;;;14.61;81.18
57847;BME280;43675;50.030;21.952;2023-05-20T05:07:38;99595.38;;;14.64;81.05
57847;BME280;43675;50.030;21.952;2023-05-20T05:10:05;99604.95;;;14.71;80.83
57847;BME280;43675;50.030;21.952;2023-05-20T05:12:31;99600.56;;;14.77;80.76
57847;BME280;43675;50.030;21.952;2023-05-20T05:14:58;99602.70;;;14.81;80.52
57847;BME280;43675;50.030;21.952;2023-05-20T05:17:24;99605.34;;;14.83;80.31
57847;BME280;43675;50.030;21.952;2023-05-20T05:19:51;99608.36;;;14.86;80.30
57847;BME280;43675;50.030;21.952;2023-05-20T05:22:17;99614.94;;;14.90;80.21
57847;BME280;43675;50.030;21.952;2023-05-20T05:24:44;99617.48;;;14.94;79.93
57847;BME280;43675;50.030;21.952;2023-05-20T05:27:11;99620.85;;;14.94;79.78
57847;BME280;43675;50.030;21.952;2023-05-20T05:29:37;99625.55;;;14.94;79.70
57847;BME280;43675;50.030;21.952;2023-05-20T05:32:04;99626.25;;;14.96;79.68
57847;BME280;43675;50.030;21.952;2023-05-20T05:34:30;99629.13;;;15.00;79.60
57847;BME280;43675;50.030;21.952;2023-05-20T05:36:57;99627.23;;;15.03;79.31
57847;BME280;43675;50.030;21.952;2023-05-20T05:39:23;99630.28;;;15.06;79.21
57847;BME280;43675;50.030;21.952;2023-05-20T05:41:50;99631.59;;;15.09;79.06
57847;BME280;43675;50.030;21.952;2023-05-20T05:44:17;99630.15;;;15.12;78.95
57847;BME280;43675;50.030;21.952;2023-05-20T05:46:43;99633.77;;;15.13;78.83
57847;BME280;43675;50.030;21.952;2023-05-20T05:49:10;99633.48;;;15.12;78.73
57847;BME280;43675;50.030;21.952;2023-05-20T05:51:36;99633.23;;;15.13;78.78
57847;BME280;43675;50.030;21.952;2023-05-20T05:54:03;99637.14;;;15.17;78.79
57847;BME280;43675;50.030;21.952;2023-05-20T05:56:29;99635.37;;;15.21;78.62
57847;BME280;43675;50.030;21.952;2023-05-20T05:58:56;99637.02;;;15.27;78.50
57847;BME280;43675;50.030;21.952;2023-05-20T06:01:23;99638.40;;;15.36;78.52
57847;BME280;43675;50.030;21.952;2023-05-20T06:03:50;99638.89;;;15.46;78.27
57847;BME280;43675;50.030;21.952;2023-05-20T06:06:16;99641.66;;;15.54;78.12
57847;BME280;43675;50.030;21.952;2023-05-20T06:08:43;99642.80;;;15.60;77.83
57847;BME280;43675;50.030;21.952;2023-05-20T06:11:09;99639.89;;;15.65;77.75
57847;BME280;43675;50.030;21.952;2023-05-20T06:13:36;99635.23;;;15.76;77.63
57847;BME280;43675;50.030;21.952;2023-05-20T06:16:03;99635.06;;;15.88;77.41
57847;BME280;43675;50.030;21.952;2023-05-20T06:18:30;99632.20;;;16.01;77.06
57847;BME280;43675;50.030;21.952;2023-05-20T06:20:57;99625.26;;;16.10;76.76
57847;BME280;43675;50.030;21.952;2023-05-20T06:23:24;99624.91;;;16.21;76.51
57847;BME280;43675;50.030;21.952;2023-05-20T06:25:51;99624.14;;;16.33;76.12
57847;BME280;43675;50.030;21.952;2023-05-20T06:28:18;99622.37;;;16.43;75.95
57847;BME280;43675;50.030;21.952;2023-05-20T06:30:44;99621.73;;;16.54;75.57
57847;BME280;43675;50.030;21.952;2023-05-20T06:33:11;99624.91;;;16.64;75.33
57847;BME280;43675;50.030;21.952;2023-05-20T06:35:37;99621.83;;;16.71;75.07
57847;BME280;43675;50.030;21.952;2023-05-20T06:38:04;99622.83;;;16.80;74.97
57847;BME280;43675;50.030;21.952;2023-05-20T06:40:30;99629.71;;;16.90;74.84
57847;BME280;43675;50.030;21.952;2023-05-20T06:42:57;99629.77;;;16.98;74.59
57847;BME280;43675;50.030;21.952;2023-05-20T06:45:23;99632.80;;;17.07;74.29
57847;BME280;43675;50.030;21.952;2023-05-20T06:47:50;99633.07;;;17.16;74.05
57847;BME280;43675;50.030;21.952;2023-05-20T06:50:16;99631.45;;;17.23;73.79
57847;BME280;43675;50.030;21.952;2023-05-20T06:52:43;99627.81;;;17.28;73.55
57847;BME280;43675;50.030;21.952;2023-05-20T06:55:10;99626.08;;;17.32;73.26
57847;BME280;43675;50.030;21.952;2023-05-20T06:57:36;99624.34;;;17.38;73.11
57847;BME280;43675;50.030;21.952;2023-05-20T07:00:04;99624.66;;;17.56;72.60
57847;BME280;43675;50.030;21.952;2023-05-20T07:02:32;99629.73;;;17.59;72.41
57847;BME280;43675;50.030;21.952;2023-05-20T07:04:59;99628.73;;;17.60;72.39
57847;BME280;43675;50.030;21.952;2023-05-20T07:07:25;99628.20;;;17.61;72.21
57847;BME280;43675;50.030;21.952;2023-05-20T07:09:53;99626.80;;;17.63;72.00
57847;BME280;43675;50.030;21.952;2023-05-20T07:12:20;99623.64;;;17.71;71.91
57847;BME280;43675;50.030;21.952;2023-05-20T07:14:47;99622.33;;;17.85;71.81
57847;BME280;43675;50.030;21.952;2023-05-20T07:17:13;99621.11;;;18.04;71.41
57847;BME280;43675;50.030;21.952;2023-05-20T07:19:40;99618.23;;;18.22;71.00
57847;BME280;43675;50.030;21.952;2023-05-20T07:22:06;99616.86;;;18.41;70.50
57847;BME280;43675;50.030;21.952;2023-05-20T07:24:35;99610.67;;;18.69;69.92
57847;BME280;43675;50.030;21.952;2023-05-20T07:27:01;99607.73;;;18.90;69.59
57847;BME280;43675;50.030;21.952;2023-05-20T07:29:28;99608.45;;;19.07;68.90
57847;BME280;43675;50.030;21.952;2023-05-20T07:31:54;99607.41;;;19.22;68.41
57847;BME280;43675;50.030;21.952;2023-05-20T07:34:21;99608.34;;;19.36;68.08
57847;BME280;43675;50.030;21.952;2023-05-20T07:36:47;99607.56;;;19.48;67.54
57847;BME280;43675;50.030;21.952;2023-05-20T07:39:15;99605.77;;;19.56;67.36
57847;BME280;43675;50.030;21.952;2023-05-20T07:41:42;99608.61;;;19.64;66.94
57847;BME280;43675;50.030;21.952;2023-05-20T07:44:09;99609.50;;;19.73;66.67
57847;BME280;43675;50.030;21.952;2023-05-20T07:46:35;99611.66;;;19.79;66.34
57847;BME280;43675;50.030;21.952;2023-05-20T07:49:02;99601.53;;;19.84;66.06
57847;BME280;43675;50.030;21.952;2023-05-20T07:51:29;99599.58;;;19.93;65.98
57847;BME280;43675;50.030;21.952;2023-05-20T07:53:56;99600.73;;;20.23;65.34
57847;BME280;43675;50.030;21.952;2023-05-20T07:56:23;99603.04;;;20.37;64.73
57847;BME280;43675;50.030;21.952;2023-05-20T07:58:57;99600.58;;;20.42;64.45
57847;BME280;43675;50.030;21.952;2023-05-20T08:01:25;99596.46;;;20.45;64.16
57847;BME280;43675;50.030;21.952;2023-05-20T08:03:52;99594.31;;;20.52;63.96
57847;BME280;43675;50.030;21.952;2023-05-20T08:06:19;99592.33;;;20.56;63.57
57847;BME280;43675;50.030;21.952;2023-05-20T08:08:46;99595.98;;;20.61;63.36
57847;BME280;43675;50.030;21.952;2023-05-20T08:11:13;99597.16;;;20.53;63.48
57847;BME280;43675;50.030;21.952;2023-05-20T08:13:39;99593.59;;;20.35;63.38
57847;BME280;43675;50.030;21.952;2023-05-20T08:16:06;99593.98;;;20.16;63.64
57847;BME280;43675;50.030;21.952;2023-05-20T08:18:34;99596.55;;;20.03;63.80
57847;BME280;43675;50.030;21.952;2023-05-20T08:21:01;99594.73;;;19.94;63.95
57847;BME280;43675;50.030;21.952;2023-05-20T08:23:27;99592.66;;;19.88;63.93
57847;BME280;43675;50.030;21.952;2023-05-20T08:25:54;99597.28;;;19.87;64.29
57847;BME280;43675;50.030;21.952;2023-05-20T08:28:21;99598.88;;;19.90;64.15
57847;BME280;43675;50.030;21.952;2023-05-20T08:30:47;99595.71;;;19.98;64.21
57847;BME280;43675;50.030;21.952;2023-05-20T08:33:17;99593.30;;;20.19;63.68
57847;BME280;43675;50.030;21.952;2023-05-20T08:35:44;99592.36;;;20.30;63.53
57847;BME280;43675;50.030;21.952;2023-05-20T08:38:10;99590.88;;;20.42;63.52
57847;BME280;43675;50.030;21.952;2023-05-20T08:40:37;99594.49;;;20.59;63.09
57847;BME280;43675;50.030;21.952;2023-05-20T08:43:03;99590.25;;;20.76;62.58
57847;BME280;43675;50.030;21.952;2023-05-20T08:45:32;99594.52;;;20.91;62.23
57847;BME280;43675;50.030;21.952;2023-05-20T08:47:59;99592.73;;;20.98;61.91
57847;BME280;43675;50.030;21.952;2023-05-20T08:50:26;99592.31;;;21.05;61.65
57847;BME280;43675;50.030;21.952;2023-05-20T08:52:53;99592.92;;;21.17;61.32
57847;BME280;43675;50.030;21.952;2023-05-20T08:55:45;99593.31;;;21.33;61.00
57847;BME280;43675;50.030;21.952;2023-05-20T08:58:11;99590.83;;;21.62;61.00
57847;BME280;43675;50.030;21.952;2023-05-20T09:00:38;99591.59;;;21.88;60.28
57847;BME280;43675;50.030;21.952;2023-05-20T09:03:05;99587.17;;;22.11;59.65
57847;BME280;43675;50.030;21.952;2023-05-20T09:05:31;99586.10;;;22.34;59.35
57847;BME280;43675;50.030;21.952;2023-05-20T09:08:09;99583.27;;;22.59;58.68
57847;BME280;43675;50.030;21.952;2023-05-20T09:10:37;99574.55;;;22.78;58.12
57847;BME280;43675;50.030;21.952;2023-05-20T09:13:05;99574.52;;;22.88;57.69
57847;BME280;43675;50.030;21.952;2023-05-20T09:15:33;99575.34;;;22.95;57.23
57847;BME280;43675;50.030;21.952;2023-05-20T09:18:01;99573.81;;;22.97;57.02
57847;BME280;43675;50.030;21.952;2023-05-20T09:20:27;99573.65;;;23.00;57.06
57847;BME280;43675;50.030;21.952;2023-05-20T09:23:02;99575.62;;;23.12;57.13
57847;BME280;43675;50.030;21.952;2023-05-20T09:25:29;99572.04;;;23.32;56.76
57847;BME280;43675;50.030;21.952;2023-05-20T09:27:55;99571.94;;;23.50;56.61
57847;BME280;43675;50.030;21.952;2023-05-20T09:30:22;99568.23;;;23.60;56.29
57847;BME280;43675;50.030;21.952;2023-05-20T09:32:56;99563.15;;;23.60;55.98
57847;BME280;43675;50.030;21.952;2023-05-20T09:35:24;99560.98;;;23.54;56.23
57847;BME280;43675;50.030;21.952;2023-05-20T09:37:56;99560.97;;;23.42;55.88
57847;BME280;43675;50.030;21.952;2023-05-20T09:40:26;99559.40;;;23.28;56.32
57847;BME280;43675;50.030;21.952;2023-05-20T09:42:55;99558.91;;;23.18;56.28
57847;BME280;43675;50.030;21.952;2023-05-20T09:45:22;99567.19;;;23.14;56.33
57847;BME280;43675;50.030;21.952;2023-05-20T09:47:50;99567.45;;;23.17;56.58
57847;BME280;43675;50.030;21.952;2023-05-20T09:50:18;99565.91;;;23.20;56.24
57847;BME280;43675;50.030;21.952;2023-05-20T09:52:46;99565.05;;;23.22;55.91
57847;BME280;43675;50.030;21.952;2023-05-20T09:55:14;99564.16;;;23.28;55.85
57847;BME280;43675;50.030;21.952;2023-05-20T09:57:41;99562.23;;;23.29;55.90
57847;BME280;43675;50.030;21.952;2023-05-20T10:00:08;99558.14;;;23.23;55.66
57847;BME280;43675;50.030;21.952;2023-05-20T10:02:35;99553.66;;;23.10;55.54
57847;BME280;43675;50.030;21.952;2023-05-20T10:05:04;99545.46;;;22.95;56.32
57847;BME280;43675;50.030;21.952;2023-05-20T10:14:02;99549.90;;;22.17;57.26
57847;BME280;43675;50.030;21.952;2023-05-20T10:19:33;99552.85;;;21.80;58.40
57847;BME280;43675;50.030;21.952;2023-05-20T10:24:38;99552.91;;;21.73;58.30
57847;BME280;43675;50.030;21.952;2023-05-20T10:27:10;99551.10;;;21.73;58.41
57847;BME280;43675;50.030;21.952;2023-05-20T10:29:49;99550.43;;;21.67;58.14
57847;BME280;43675;50.030;21.952;2023-05-20T10:32:47;99546.26;;;21.64;58.63
57847;BME280;43675;50.030;21.952;2023-05-20T10:35:20;99546.27;;;21.65;58.48
57847;BME280;43675;50.030;21.952;2023-05-20T10:37:47;99542.89;;;21.67;58.40
57847;BME280;43675;50.030;21.952;2023-05-20T10:40:17;99542.16;;;21.72;58.71
57847;BME280;43675;50.030;21.952;2023-05-20T10:42:43;99539.21;;;21.75;58.51
57847;BME280;43675;50.030;21.952;2023-05-20T10:45:10;99544.79;;;21.77;58.20
57847;BME280;43675;50.030;21.952;2023-05-20T10:47:54;99544.79;;;21.77;58.00
57847;BME280;43675;50.030;21.952;2023-05-20T10:50:32;99538.23;;;21.73;58.28
57847;BME280;43675;50.030;21.952;2023-05-20T10:53:10;99541.46;;;21.75;58.41
57847;BME280;43675;50.030;21.952;2023-05-20T10:55:47;99545.55;;;21.78;58.57
57847;BME280;43675;50.030;21.952;2023-05-20T10:58:14;99536.96;;;21.76;58.39
57847;BME280;43675;50.030;21.952;2023-05-20T11:00:42;99532.30;;;21.69;58.45
57847;BME280;43675;50.030;21.952;2023-05-20T11:03:09;99523.98;;;21.56;58.52
57847;BME280;43675;50.030;21.952;2023-05-20T11:05:38;99523.94;;;21.46;59.11
57847;BME280;43675;50.030;21.952;2023-05-20T11:08:06;99518.03;;;21.38;59.11
57847;BME280;43675;50.030;21.952;2023-05-20T11:10:34;99520.48;;;21.34;59.67
57847;BME280;43675;50.030;21.952;2023-05-20T11:13:04;99520.25;;;21.32;59.44
57847;BME280;43675;50.030;21.952;2023-05-20T11:15:31;99518.95;;;21.34;59.53
57847;BME280;43675;50.030;21.952;2023-05-20T11:18:00;99516.48;;;21.33;59.72
57847;BME280;43675;50.030;21.952;2023-05-20T11:20:29;99511.58;;;21.34;59.77
57847;BME280;43675;50.030;21.952;2023-05-20T11:22:56;99512.80;;;21.38;59.27
57847;BME280;43675;50.030;21.952;2023-05-20T11:25:23;99513.52;;;21.40;59.27
57847;BME280;43675;50.030;21.952;2023-05-20T11:27:49;99512.04;;;21.38;59.69
57847;BME280;43675;50.030;21.952;2023-05-20T11:30:17;99511.59;;;21.36;59.45
57847;BME280;43675;50.030;21.952;2023-05-20T11:32:54;99507.70;;;21.33;59.27
57847;BME280;43675;50.030;21.952;2023-05-20T11:35:22;99508.10;;;21.28;59.29
57847;BME280;43675;50.030;21.952;2023-05-20T11:38:03;99504.92;;;21.27;59.81
57847;BME280;43675;50.030;21.952;2023-05-20T11:40:31;99496.84;;;21.24;59.43
57847;BME280;43675;50.030;21.952;2023-05-20T11:42:59;99495.37;;;21.35;59.45
57847;BME280;43675;50.030;21.952;2023-05-20T11:45:37;99487.89;;;21.38;59.32
57847;BME280;43675;50.030;21.952;2023-05-20T11:48:05;99490.68;;;21.38;59.38
57847;BME280;43675;50.030;21.952;2023-05-20T11:50:40;99485.41;;;21.41;59.38
57847;BME280;43675;50.030;21.952;2023-05-20T11:53:18;99481.68;;;21.50;59.71
57847;BME280;43675;50.030;21.952;2023-05-20T11:55:46;99486.95;;;21.57;59.27
57847;BME280;43675;50.030;21.952;2023-05-20T11:58:32;99484.33;;;21.64;59.11
57847;BME280;43675;50.030;21.952;2023-05-20T12:00:59;99481.55;;;21.72;58.83
57847;BME280;43675;50.030;21.952;2023-05-20T12:03:26;99480.36;;;21.75;58.25
57847;BME280;43675;50.030;21.952;2023-05-20T12:05:52;99474.23;;;21.74;58.10
57847;BME280;43675;50.030;21.952;2023-05-20T12:08:19;99473.36;;;21.75;58.27
57847;BME280;43675;50.030;21.952;2023-05-20T12:10:45;99469.83;;;21.77;58.42
57847;BME280;43675;50.030;21.952;2023-05-20T12:13:12;99465.77;;;21.76;58.41
57847;BME280;43675;50.030;21.952;2023-05-20T12:15:39;99457.04;;;21.77;58.48
57847;BME280;43675;50.030;21.952;2023-05-20T12:18:06;99454.76;;;21.79;58.48
57847;BME280;43675;50.030;21.952;2023-05-20T12:20:32;99450.06;;;21.81;58.58
57847;BME280;43675;50.030;21.952;2023-05-20T12:22:59;99446.20;;;21.90;58.43
57847;BME280;43675;50.030;21.952;2023-05-20T12:25:26;99441.39;;;21.97;57.94
57847;BME280;43675;50.030;21.952;2023-05-20T12:27:54;99441.61;;;22.01;57.60
57847;BME280;43675;50.030;21.952;2023-05-20T12:30:22;99439.38;;;22.05;57.62
57847;BME280;43675;50.030;21.952;2023-05-20T12:32:50;99433.11;;;22.14;57.48
57847;BME280;43675;50.030;21.952;2023-05-20T12:35:25;99429.66;;;22.23;57.09
57847;BME280;43675;50.030;21.952;2023-05-20T12:37:52;99425.52;;;22.30;56.76
57847;BME280;43675;50.030;21.952;2023-05-20T12:40:19;99420.05;;;22.34;56.16
57847;BME280;43675;50.030;21.952;2023-05-20T12:42:45;99421.59;;;22.36;56.05
57847;BME280;43675;50.030;21.952;2023-05-20T12:45:12;99416.29;;;22.38;56.29
57847;BME280;43675;50.030;21.952;2023-05-20T12:47:38;99413.89;;;22.42;55.80
57847;BME280;43675;50.030;21.952;2023-05-20T12:50:05;99409.07;;;22.45;55.93
57847;BME280;43675;50.030;21.952;2023-05-20T12:52:32;99407.42;;;22.49;55.75
57847;BME280;43675;50.030;21.952;2023-05-20T12:54:58;99403.91;;;22.51;55.33
57847;BME280;43675;50.030;21.952;2023-05-20T12:57:25;99394.02;;;22.54;55.41
57847;BME280;43675;50.030;21.952;2023-05-20T12:59:52;99394.29;;;22.56;55.28
57847;BME280;43675;50.030;21.952;2023-05-20T13:02:19;99386.09;;;22.56;54.84
57847;BME280;43675;50.030;21.952;2023-05-20T13:04:45;99382.69;;;22.56;55.04
57847;BME280;43675;50.030;21.952;2023-05-20T13:07:12;99376.19;;;22.57;55.28